Time;durP1;ratioP1;P1;durP2;ratioP2;P2;SDS_P1;SDS_P2;PMS_P1;PMS_P2;Temp;Humidity;BMP_temperature;BMP_pressure;BME280_temperature;BME280_humidity;BME280_pressure;Samples;Min_cycle;Max_cycle;Signal;HPM_P1;HPM_P2
2022/12/07 00:01:18;;;;;;;0.10;0.10;;;;;;;2.75;100.00;98835.19;5001615;28;20331;-62
2022/12/07 00:03:46;;;;;;;0.00;0.00;;;;;;;2.70;100.00;98827.75;4997807;28;20217;-61
2022/12/07 00:06:15;;;;;;;0.10;0.10;;;;;;;2.74;100.00;98823.22;5002193;28;20289;-62
2022/12/07 00:08:42;;;;;;;0.10;0.10;;;;;;;2.77;100.00;98825.59;5002489;28;20232;-65
2022/12/07 00:11:11;;;;;;;0.00;0.00;;;;;;;2.79;100.00;98816.03;5002592;28;20232;-62
2022/12/07 00:13:40;;;;;;;0.00;0.00;;;;;;;2.79;100.00;98828.91;5001865;28;20282;-62
2022/12/07 00:16:08;;;;;;;0.00;0.00;;;;;;;2.76;100.00;98814.47;5002339;28;20248;-62
2022/12/07 00:18:36;;;;;;;0.00;0.00;;;;;;;2.80;100.00;98817.69;5004291;28;20233;-62
2022/12/07 00:21:03;;;;;;;0.10;0.10;;;;;;;2.82;100.00;98826.16;5002346;28;20236;-62
2022/12/07 00:23:30;;;;;;;0.07;0.07;;;;;;;2.84;100.00;98824.28;4986200;28;21082;-62
2022/12/07 00:25:57;;;;;;;0.00;0.00;;;;;;;2.88;100.00;98824.94;5000463;28;20595;-62
2022/12/07 00:28:23;;;;;;;0.10;0.10;;;;;;;2.79;100.00;98821.19;5003341;28;20301;-62
2022/12/07 00:30:51;;;;;;;0.00;0.00;;;;;;;2.80;100.00;98821.09;5001914;28;20237;-62
2022/12/07 00:33:18;;;;;;;0.07;0.07;;;;;;;2.80;100.00;98818.53;5002630;28;20736;-62
2022/12/07 00:35:44;;;;;;;0.00;0.00;;;;;;;2.80;100.00;98821.09;5004196;28;20294;-62
2022/12/07 00:38:11;;;;;;;0.10;0.10;;;;;;;2.84;100.00;98819.13;5004705;28;20283;-62
2022/12/07 00:40:37;;;;;;;0.00;0.00;;;;;;;2.82;100.00;98820.16;5003700;28;20232;-62
2022/12/07 00:43:04;;;;;;;0.10;0.10;;;;;;;2.83;100.00;98811.50;5002177;28;20332;-62
2022/12/07 00:45:30;;;;;;;0.10;0.10;;;;;;;2.86;100.00;98813.91;5001063;28;20235;-61
2022/12/07 00:47:58;;;;;;;0.10;0.10;;;;;;;2.90;100.00;98812.78;5003862;28;20232;-61
2022/12/07 00:50:25;;;;;;;0.00;0.00;;;;;;;2.89;100.00;98814.53;5004287;28;20243;-62
2022/12/07 00:52:51;;;;;;;0.10;0.10;;;;;;;2.89;100.00;98818.88;5000447;28;20715;-61
2022/12/07 00:55:18;;;;;;;0.07;0.07;;;;;;;2.87;100.00;98813.78;5004488;28;20692;-61
2022/12/07 00:57:45;;;;;;;0.00;0.00;;;;;;;2.88;100.00;98812.88;4996517;28;20589;-61
2022/12/07 01:00:12;;;;;;;0.00;0.00;;;;;;;2.88;100.00;98812.88;4999306;28;20724;-61
2022/12/07 01:02:38;;;;;;;0.10;0.10;;;;;;;2.85;100.00;98807.91;5010602;28;20254;-61
2022/12/07 01:05:07;;;;;;;0.10;0.10;;;;;;;2.84;100.00;98813.16;5013070;28;20235;-61
2022/12/07 01:07:34;;;;;;;0.00;0.00;;;;;;;2.79;100.00;98818.59;5005911;28;20240;-61
2022/12/07 01:10:00;;;;;;;0.03;0.03;;;;;;;2.81;100.00;98819.31;5002580;28;20240;-61
2022/12/07 01:12:27;;;;;;;0.00;0.00;;;;;;;2.86;100.00;98821.63;5003581;28;20301;-62
2022/12/07 01:14:53;;;;;;;0.07;0.07;;;;;;;2.88;100.00;98819.78;5008861;28;20708;-61
2022/12/07 01:17:20;;;;;;;0.10;0.10;;;;;;;2.90;100.00;98817.94;5008875;28;20693;-61
2022/12/07 01:19:46;;;;;;;0.00;0.00;;;;;;;2.89;100.00;98819.69;5000052;28;20722;-61
2022/12/07 01:22:14;;;;;;;0.00;0.00;;;;;;;2.88;100.00;98814.63;4994139;28;20723;-61
2022/12/07 01:24:41;;;;;;;0.00;0.00;;;;;;;2.89;100.00;98817.09;5004589;28;20321;-61
2022/12/07 01:27:07;;;;;;;0.10;0.10;;;;;;;2.86;100.00;98819.88;5006526;28;20237;-61
2022/12/07 01:29:34;;;;;;;0.10;0.10;;;;;;;2.85;100.00;98817.41;5002805;28;20240;-61
2022/12/07 01:32:00;;;;;;;0.10;0.10;;;;;;;2.84;100.00;98826.06;5004277;28;20290;-60
2022/12/07 01:34:27;;;;;;;0.00;0.00;;;;;;;2.87;100.00;98821.53;5003345;28;20289;-62
2022/12/07 01:36:54;;;;;;;0.00;0.00;;;;;;;2.87;100.00;98825.88;5001157;28;20236;-61
2022/12/07 01:39:22;;;;;;;0.10;0.10;;;;;;;2.84;100.00;98832.03;5010440;28;20248;-61
2022/12/07 01:41:48;;;;;;;0.10;0.10;;;;;;;2.91;100.00;98835.06;5003398;28;20243;-61
2022/12/07 01:44:21;;;;;;;0.00;0.00;;;;;;;2.84;100.00;98844.91;5007207;28;20231;-61
2022/12/07 01:46:48;;;;;;;0.10;0.10;;;;;;;2.86;100.00;98834.53;5011388;28;20357;-62
2022/12/07 01:49:30;;;;;;;0.00;0.00;;;;;;;2.84;100.00;98839.75;5007735;28;20268;-62
2022/12/07 01:52:02;;;;;;;0.00;0.00;;;;;;;2.84;100.00;98833.78;5005170;28;20774;-62
2022/12/07 01:54:32;;;;;;;0.00;0.00;;;;;;;2.80;100.00;98830.56;5003955;28;20231;-62
2022/12/07 01:56:59;;;;;;;0.00;0.00;;;;;;;2.79;100.00;98840.06;5005545;28;20630;-63
2022/12/07 01:59:26;;;;;;;0.10;0.10;;;;;;;2.76;100.00;98837.69;4983512;28;20224;-61
2022/12/07 02:01:54;;;;;;;0.00;0.00;;;;;;;2.78;100.00;98838.41;5000385;28;20251;-62
2022/12/07 02:04:22;;;;;;;0.10;0.10;;;;;;;2.79;100.00;98839.22;5008266;28;20822;-61
2022/12/07 02:06:49;;;;;;;0.10;0.10;;;;;;;2.76;100.00;98837.69;4999526;28;20283;-61
2022/12/07 02:09:16;;;;;;;0.00;0.00;;;;;;;2.74;100.00;98833.53;5008306;28;20236;-62
2022/12/07 02:11:44;;;;;;;0.10;0.10;;;;;;;2.70;100.00;98838.06;5000147;28;20264;-62
2022/12/07 02:14:10;;;;;;;0.00;0.00;;;;;;;2.63;100.00;98827.31;4989151;28;20387;-62
2022/12/07 02:16:52;;;;;;;0.10;0.10;;;;;;;2.64;100.00;98830.72;5005052;28;20734;-62
2022/12/07 02:19:40;;;;;;;0.00;0.00;;;;;;;2.61;100.00;98823.16;5004150;28;20681;-62
2022/12/07 02:22:20;;;;;;;0.00;0.00;;;;;;;2.66;100.00;98821.13;5005448;28;20241;-62
2022/12/07 02:24:55;;;;;;;0.03;0.03;;;;;;;2.61;100.00;98826.59;5004687;28;20236;-61
2022/12/07 02:27:38;;;;;;;0.10;0.10;;;;;;;2.60;100.00;98824.09;5005873;28;20271;-62
2022/12/07 02:30:08;;;;;;;0.00;0.00;;;;;;;2.56;100.00;98826.03;4997919;28;20285;-61
2022/12/07 02:32:52;;;;;;;0.10;0.10;;;;;;;2.51;100.00;98826.31;4988849;28;20242;-62
2022/12/07 02:35:21;;;;;;;0.00;0.00;;;;;;;2.50;100.00;98818.69;5006400;28;20305;-61
2022/12/07 02:37:59;;;;;;;0.10;0.10;;;;;;;2.48;100.00;98813.63;5002191;28;20238;-62
2022/12/07 02:40:32;;;;;;;0.10;0.10;;;;;;;2.43;100.00;98809.69;5009254;28;20230;-62
2022/12/07 02:43:05;;;;;;;0.10;0.10;;;;;;;2.43;100.00;98809.69;5012833;28;20239;-61
2022/12/07 02:45:37;;;;;;;0.10;0.10;;;;;;;2.39;100.00;98809.03;5005615;28;20681;-61
2022/12/07 02:48:06;;;;;;;0.10;0.10;;;;;;;2.43;100.00;98805.34;5010811;28;20265;-61
2022/12/07 02:50:33;;;;;;;0.00;0.00;;;;;;;2.41;100.00;98807.19;5007112;28;20227;-61
2022/12/07 02:53:00;;;;;;;0.00;0.00;;;;;;;2.41;100.00;98794.31;5002362;28;20600;-61
2022/12/07 02:55:31;;;;;;;0.00;0.00;;;;;;;2.37;100.00;98792.84;5009419;28;20613;-61
2022/12/07 02:58:21;;;;;;;0.10;0.10;;;;;;;2.35;100.00;98792.09;5001657;28;20689;-61
2022/12/07 03:00:57;;;;;;;0.00;0.00;;;;;;;2.33;100.00;98799.94;5003145;28;20236;-61
2022/12/07 03:03:25;;;;;;;0.00;0.00;;;;;;;2.37;100.00;98800.56;5005575;28;20285;-61
2022/12/07 03:06:11;;;;;;;0.10;0.10;;;;;;;2.36;100.00;98798.91;5009373;28;20290;-61
2022/12/07 03:08:48;;;;;;;0.10;0.10;;;;;;;2.33;100.00;98807.66;5004336;28;20231;-61
2022/12/07 03:11:22;;;;;;;0.00;0.00;;;;;;;2.35;100.00;98808.41;5003339;28;20235;-61
2022/12/07 03:13:55;;;;;;;0.10;0.10;;;;;;;2.33;100.00;98802.50;5006070;28;20269;-61
2022/12/07 03:16:27;;;;;;;0.07;0.07;;;;;;;2.31;100.00;98803.50;5010658;28;20231;-61
2022/12/07 03:18:57;;;;;;;0.10;0.10;;;;;;;2.31;100.00;98799.19;5003511;28;20809;-62
2022/12/07 03:21:28;;;;;;;0.00;0.00;;;;;;;2.31;100.00;98804.34;5004059;28;20249;-61
2022/12/07 03:23:57;;;;;;;0.10;0.10;;;;;;;2.35;100.00;98800.66;4997229;28;20760;-62
2022/12/07 03:26:31;;;;;;;0.10;0.10;;;;;;;2.38;100.00;98804.78;5006757;28;20239;-61
2022/12/07 03:29:03;;;;;;;0.00;0.00;;;;;;;2.41;100.00;98811.53;5007049;28;20231;-61
2022/12/07 03:31:34;;;;;;;0.10;0.10;;;;;;;2.34;100.00;98801.59;5004066;28;20264;-61
2022/12/07 03:34:07;;;;;;;0.07;0.07;;;;;;;2.37;100.00;98792.84;4999679;28;20232;-61
2022/12/07 03:36:41;;;;;;;0.00;0.00;;;;;;;2.32;100.00;98784.56;5008530;28;20235;-61
2022/12/07 03:39:18;;;;;;;0.10;0.10;;;;;;;2.29;100.00;98795.06;5008175;28;20231;-62
2022/12/07 03:41:46;;;;;;;0.10;0.10;;;;;;;2.27;100.00;98787.44;5006456;28;20335;-62
2022/12/07 03:44:14;;;;;;;0.00;0.00;;;;;;;2.28;100.00;98790.81;5004379;28;20274;-61
2022/12/07 03:46:49;;;;;;;0.03;0.03;;;;;;;2.30;100.00;98791.56;4996290;28;20287;-61
2022/12/07 03:49:23;;;;;;;0.00;0.00;;;;;;;2.27;100.00;98790.00;5004204;28;20240;-61
2022/12/07 03:51:56;;;;;;;0.10;0.10;;;;;;;2.27;100.00;98792.59;5002791;28;20808;-61
2022/12/07 03:54:25;;;;;;;0.00;0.00;;;;;;;2.29;100.00;98793.31;5004519;28;20233;-62
2022/12/07 03:56:54;;;;;;;0.00;0.00;;;;;;;2.33;100.00;98792.22;5000194;28;20283;-62
2022/12/07 03:59:21;;;;;;;0.00;0.00;;;;;;;2.36;100.00;98794.59;5001107;28;20315;-61
2022/12/07 04:01:54;;;;;;;0.10;0.10;;;;;;;2.36;100.00;98783.44;5001446;28;20240;-62
2022/12/07 04:04:21;;;;;;;0.00;0.00;;;;;;;2.33;100.00;98779.31;5006075;28;20251;-62
2022/12/07 04:06:48;;;;;;;0.10;0.10;;;;;;;2.34;100.00;98783.56;5012414;28;21239;-62
2022/12/07 04:09:15;;;;;;;0.10;0.10;;;;;;;2.35;100.00;98798.09;5006581;28;20944;-61
2022/12/07 04:11:41;;;;;;;0.00;0.00;;;;;;;2.42;100.00;98790.00;5002310;28;20232;-61
2022/12/07 04:14:20;;;;;;;0.10;0.10;;;;;;;2.34;100.00;98798.16;5004577;28;20228;-61
2022/12/07 04:16:47;;;;;;;0.00;0.00;;;;;;;2.33;100.00;98778.47;4995299;28;20573;-61
2022/12/07 04:19:15;;;;;;;0.10;0.10;;;;;;;2.33;100.00;98778.47;5009574;28;20280;-61
2022/12/07 04:21:42;;;;;;;0.00;0.00;;;;;;;2.33;100.00;98773.34;4976505;28;20639;-62
2022/12/07 04:24:09;;;;;;;0.03;0.03;;;;;;;2.31;100.00;98772.59;5010024;28;20815;-61
2022/12/07 04:26:36;;;;;;;0.10;0.10;;;;;;;2.30;100.00;98783.81;5004895;28;20294;-61
2022/12/07 04:29:03;;;;;;;0.00;0.00;;;;;;;2.30;100.00;98781.25;5008786;28;20673;-61
2022/12/07 04:31:29;;;;;;;0.10;0.10;;;;;;;2.27;100.00;98768.56;5248390;22;20218;-60
2022/12/07 04:33:56;;;;;;;0.00;0.00;;;;;;;2.29;100.00;98770.13;5045524;28;20281;-60
2022/12/07 04:36:24;;;;;;;0.00;0.00;;;;;;;2.25;100.00;98765.25;5045878;28;20230;-61
2022/12/07 04:38:53;;;;;;;0.10;0.10;;;;;;;2.20;100.00;98775.84;5052947;28;20889;-60
2022/12/07 04:41:26;;;;;;;0.10;0.10;;;;;;;2.18;100.00;98773.34;5042158;28;20248;-60
2022/12/07 04:43:53;;;;;;;0.03;0.03;;;;;;;2.14;100.00;98773.66;5047712;28;20271;-60
2022/12/07 04:46:20;;;;;;;0.00;0.00;;;;;;;2.13;100.00;98777.16;5049324;28;20239;-60
2022/12/07 04:48:47;;;;;;;0.00;0.00;;;;;;;2.11;100.00;98772.09;5054776;28;20280;-60
2022/12/07 04:51:14;;;;;;;0.00;0.00;;;;;;;2.11;100.00;98772.09;5045782;28;20223;-60
2022/12/07 04:53:42;;;;;;;0.00;0.00;;;;;;;2.10;100.00;98777.31;5051344;28;20230;-60
2022/12/07 04:56:08;;;;;;;0.03;0.03;;;;;;;2.06;100.00;98789.56;5047164;28;20230;-60
2022/12/07 04:58:35;;;;;;;0.10;0.10;;;;;;;2.07;100.00;98786.09;5045906;28;20249;-60
2022/12/07 05:01:01;;;;;;;0.00;0.00;;;;;;;2.07;100.00;98788.66;5035584;28;20625;-60
2022/12/07 05:03:28;;;;;;;0.10;0.10;;;;;;;2.02;100.00;98791.50;5045686;28;20707;-59
2022/12/07 05:05:54;;;;;;;0.10;0.10;;;;;;;1.97;100.00;98798.66;5039189;28;20246;-60
2022/12/07 05:08:21;;;;;;;0.10;0.10;;;;;;;1.97;100.00;98800.44;5053313;28;20222;-60
2022/12/07 05:10:50;;;;;;;0.10;0.10;;;;;;;1.97;100.00;98800.44;5042132;28;20633;-59
2022/12/07 05:13:17;;;;;;;0.07;0.07;;;;;;;1.92;100.00;98795.53;5048902;28;20309;-60
2022/12/07 05:15:44;;;;;;;0.00;0.00;;;;;;;1.79;100.00;98789.47;5047200;28;20697;-60
2022/12/07 05:18:12;;;;;;;0.00;0.00;;;;;;;1.67;100.00;98784.13;5050238;28;20315;-59
2022/12/07 05:20:38;;;;;;;0.10;0.10;;;;;;;1.56;100.00;98792.47;5042859;28;20226;-60
2022/12/07 05:23:05;;;;;;;0.07;0.07;;;;;;;1.46;100.00;98787.03;5048172;28;20235;-60
2022/12/07 05:25:32;;;;;;;0.00;0.00;;;;;;;1.44;100.00;98794.03;5050064;28;20227;-59
2022/12/07 05:28:00;;;;;;;0.00;0.00;;;;;;;1.38;100.00;98783.25;5046170;28;20243;-60
2022/12/07 05:30:27;;;;;;;0.00;0.00;;;;;;;1.31;100.00;98777.63;5050393;28;20244;-60
2022/12/07 05:32:54;;;;;;;0.00;0.00;;;;;;;1.31;100.00;98788.75;5047312;28;20235;-60
2022/12/07 05:35:20;;;;;;;0.10;0.10;;;;;;;1.31;100.00;98782.78;5031826;28;20235;-60
2022/12/07 05:37:47;;;;;;;0.10;0.10;;;;;;;1.27;100.00;98773.59;5048710;28;20233;-61
2022/12/07 05:40:15;;;;;;;0.10;0.10;;;;;;;1.27;100.00;98778.72;5046980;28;20708;-60
2022/12/07 05:42:41;;;;;;;0.10;0.10;;;;;;;1.30;100.00;98773.41;5044964;28;20231;-58
2022/12/07 05:45:10;;;;;;;0.00;0.00;;;;;;;1.27;100.00;98778.72;5042676;28;20319;-60
2022/12/07 05:47:37;;;;;;;0.03;0.03;;;;;;;1.30;100.00;98791.41;5048739;28;20235;-60
2022/12/07 05:50:05;;;;;;;0.00;0.00;;;;;;;1.29;100.00;98787.19;5045954;28;20303;-60
2022/12/07 05:52:32;;;;;;;0.10;0.10;;;;;;;1.32;100.00;98781.88;5045543;28;20235;-59
2022/12/07 05:54:58;;;;;;;0.00;0.00;;;;;;;1.38;100.00;98788.38;5045748;28;20251;-60
2022/12/07 05:57:25;;;;;;;0.00;0.00;;;;;;;1.40;100.00;98789.13;5042555;28;20238;-60
2022/12/07 05:59:50;;;;;;;0.07;0.07;;;;;;;1.43;100.00;98788.94;5044918;28;20238;-60
2022/12/07 06:02:18;;;;;;;0.00;0.00;;;;;;;1.45;100.00;98790.53;5045853;28;20285;-61
2022/12/07 06:04:46;;;;;;;0.10;0.10;;;;;;;1.48;100.00;98797.22;5037553;28;20254;-59
2022/12/07 06:07:16;;;;;;;0.00;0.00;;;;;;;1.51;100.00;98794.47;5040129;28;20247;-60
2022/12/07 06:09:43;;;;;;;0.10;0.10;;;;;;;1.52;100.00;98800.47;5043973;28;20386;-60
2022/12/07 06:14:55;;;;;;;0.00;0.00;;;;;;;1.51;100.00;98801.38;5040738;28;20236;-60
2022/12/07 06:17:23;;;;;;;0.00;0.00;;;;;;;1.51;100.00;98804.78;5044396;28;20231;-61
2022/12/07 06:19:50;;;;;;;0.07;0.07;;;;;;;1.51;100.00;98809.91;5040027;28;20222;-59
2022/12/07 06:22:17;;;;;;;0.00;0.00;;;;;;;1.49;100.00;98806.59;5044535;28;20218;-60
2022/12/07 06:24:44;;;;;;;0.07;0.07;;;;;;;1.50;100.00;98800.53;5044907;28;20226;-59
2022/12/07 06:27:11;;;;;;;0.07;0.07;;;;;;;1.44;100.00;98806.03;5045213;28;20246;-60
2022/12/07 06:29:37;;;;;;;0.00;0.00;;;;;;;1.44;100.00;98806.03;5048965;28;20276;-60
2022/12/07 06:32:05;;;;;;;0.00;0.00;;;;;;;1.41;100.00;98806.22;5024557;28;20852;-60
2022/12/07 06:34:33;;;;;;;0.00;0.00;;;;;;;1.39;100.00;98798.59;5045027;28;20325;-59
2022/12/07 06:37:00;;;;;;;0.00;0.00;;;;;;;1.39;100.00;98803.75;5046567;28;20234;-60
2022/12/07 06:39:28;;;;;;;0.00;0.00;;;;;;;1.40;100.00;98800.25;5048428;28;20285;-60
2022/12/07 06:41:55;;;;;;;0.00;0.00;;;;;;;1.41;100.00;98796.78;5043812;28;20295;-61
2022/12/07 06:44:22;;;;;;;0.00;0.00;;;;;;;1.42;100.00;98801.00;5046159;28;20591;-59
2022/12/07 06:46:49;;;;;;;0.00;0.00;;;;;;;1.40;100.00;98805.41;5047033;28;20713;-60
2022/12/07 06:49:16;;;;;;;0.00;0.00;;;;;;;1.41;100.00;98804.50;5051045;28;20227;-60
2022/12/07 06:51:44;;;;;;;0.03;0.03;;;;;;;1.39;100.00;98814.03;5041150;28;20222;-60
2022/12/07 06:54:12;;;;;;;0.00;0.00;;;;;;;1.41;100.00;98812.22;5049221;28;20281;-60
2022/12/07 06:56:39;;;;;;;0.00;0.00;;;;;;;1.40;100.00;98813.13;5042852;28;20223;-59
2022/12/07 06:59:06;;;;;;;0.00;0.00;;;;;;;1.42;100.00;98815.59;5041621;28;20743;-60
2022/12/07 07:01:33;;;;;;;0.00;0.00;;;;;;;1.47;100.00;98806.72;5040986;28;20231;-59
2022/12/07 07:04:00;;;;;;;0.10;0.10;;;;;;;1.45;100.00;98810.28;5045051;28;20231;-59
2022/12/07 07:06:27;;;;;;;0.00;0.00;;;;;;;1.47;100.00;98806.72;5042059;28;20223;-59
2022/12/07 07:08:55;;;;;;;0.00;0.00;;;;;;;1.39;100.00;98798.59;5039121;28;20748;-59
2022/12/07 07:11:21;;;;;;;0.00;0.00;;;;;;;1.39;100.00;98814.03;5045011;28;20691;-59
2022/12/07 07:13:48;;;;;;;0.10;0.10;;;;;;;1.45;100.00;98813.69;5041648;28;20554;-59
2022/12/07 07:16:14;;;;;;;0.00;0.00;;;;;;;1.44;100.00;98812.03;5044210;28;20234;-59
2022/12/07 07:18:41;;;;;;;0.00;0.00;;;;;;;1.50;100.00;98808.25;5025446;28;20219;-59
2022/12/07 07:21:08;;;;;;;0.10;0.10;;;;;;;1.53;100.00;98810.66;5048280;28;20234;-59
2022/12/07 07:23:34;;;;;;;0.00;0.00;;;;;;;1.54;100.00;98817.47;5048288;28;20234;-60
2022/12/07 07:26:02;;;;;;;0.10;0.10;;;;;;;1.57;100.00;98824.19;5044088;28;20239;-58
2022/12/07 07:28:29;;;;;;;0.10;0.10;;;;;;;1.57;100.00;98822.44;5048218;28;20231;-59
2022/12/07 07:30:55;;;;;;;0.10;0.10;;;;;;;1.55;100.00;98826.03;5041953;28;20235;-58
2022/12/07 07:33:22;;;;;;;0.00;0.00;;;;;;;1.65;100.00;98826.31;5052034;28;20224;-59
2022/12/07 07:35:49;;;;;;;0.00;0.00;;;;;;;1.65;100.00;98823.72;5041846;28;20700;-59
2022/12/07 07:38:15;;;;;;;0.00;0.00;;;;;;;1.71;100.00;98823.38;5050973;28;20227;-58
2022/12/07 07:40:42;;;;;;;0.07;0.07;;;;;;;1.73;100.00;98826.69;5049238;28;20226;-59
2022/12/07 07:43:10;;;;;;;0.00;0.00;;;;;;;1.81;100.00;98832.22;5034816;28;20231;-59
2022/12/07 07:45:36;;;;;;;0.00;0.00;;;;;;;1.92;100.00;98829.84;5046848;28;20285;-59
2022/12/07 07:48:03;;;;;;;0.10;0.10;;;;;;;1.92;100.00;98829.00;5047782;28;20733;-60
2022/12/07 07:50:30;;;;;;;0.07;0.07;;;;;;;1.96;100.00;98832.25;5052581;28;20707;-59
2022/12/07 07:52:58;;;;;;;0.00;0.00;;;;;;;1.87;100.00;98831.00;5047583;28;20576;-59
2022/12/07 07:55:24;;;;;;;0.00;0.00;;;;;;;1.92;100.00;98829.84;5056171;28;20229;-59
2022/12/07 07:57:51;;;;;;;0.00;0.00;;;;;;;1.98;100.00;98827.81;5044556;28;20231;-58
2022/12/07 08:00:19;;;;;;;0.03;0.03;;;;;;;2.01;100.00;98831.03;5047205;28;20219;-59
2022/12/07 08:02:46;;;;;;;0.10;0.10;;;;;;;2.05;100.00;98831.69;5044550;28;20292;-59
2022/12/07 08:05:14;;;;;;;0.03;0.03;;;;;;;2.11;100.00;98836.47;5048181;28;20321;-59
2022/12/07 08:07:41;;;;;;;0.00;0.00;;;;;;;2.09;100.00;98842.63;5044329;28;20241;-59
2022/12/07 08:10:10;;;;;;;0.10;0.10;;;;;;;2.16;100.00;98833.63;5049478;28;20698;-59
2022/12/07 08:13:10;;;;;;;0.00;0.00;;;;;;;2.19;100.00;98834.25;5046181;28;20231;-60
2022/12/07 08:15:27;;;;;;;0.10;0.10;;;;;;;2.27;100.00;98841.53;5045502;28;20226;-59
2022/12/07 08:17:54;;;;;;;0.03;0.03;;;;;;;2.33;100.00;98836.00;5043191;28;20715;-59
2022/12/07 08:20:21;;;;;;;0.10;0.10;;;;;;;2.44;100.00;98842.25;5045325;28;20315;-60
2022/12/07 08:22:47;;;;;;;0.10;0.10;;;;;;;2.44;100.00;98847.41;5043557;28;20287;-60
2022/12/07 08:25:14;;;;;;;0.10;0.10;;;;;;;2.54;100.00;98845.06;5050202;28;20298;-59
2022/12/07 08:27:40;;;;;;;0.10;0.10;;;;;;;2.58;100.00;98842.25;5048621;28;20706;-60
2022/12/07 08:30:08;;;;;;;0.00;0.00;;;;;;;2.56;100.00;98849.22;5050561;28;20583;-59
2022/12/07 08:32:36;;;;;;;0.10;0.10;;;;;;;2.59;100.00;98846.47;5053823;28;20248;-59
2022/12/07 08:35:03;;;;;;;0.10;0.10;;;;;;;2.64;99.89;98847.00;5044508;28;20712;-59
2022/12/07 08:37:29;;;;;;;0.10;0.10;;;;;;;2.74;100.00;98854.16;5049541;28;20219;-60
2022/12/07 08:39:56;;;;;;;0.00;0.00;;;;;;;2.82;100.00;98858.84;5045192;28;20238;-59
2022/12/07 08:42:27;;;;;;;0.10;0.10;;;;;;;2.89;99.69;98854.97;5039438;28;20236;-59
2022/12/07 08:44:53;;;;;;;0.10;0.10;;;;;;;2.86;95.35;98855.16;5046558;28;20242;-59
2022/12/07 08:47:20;;;;;;;0.00;0.00;;;;;;;2.92;93.94;98853.00;5042864;28;20285;-60
2022/12/07 08:49:51;;;;;;;0.00;0.00;;;;;;;3.06;97.63;98857.31;5042457;28;20614;-59
2022/12/07 08:52:18;;;;;;;0.10;0.10;;;;;;;3.17;98.49;98850.66;5046741;28;20594;-59
2022/12/07 08:54:45;;;;;;;0.10;0.10;;;;;;;3.23;97.45;98848.47;5042199;28;20277;-59
2022/12/07 08:57:12;;;;;;;0.10;0.10;;;;;;;3.18;96.06;98847.13;5050024;28;20685;-59
2022/12/07 08:59:39;;;;;;;0.00;0.00;;;;;;;3.21;96.67;98842.59;5048358;28;20579;-60
2022/12/07 09:02:07;;;;;;;0.10;0.10;;;;;;;3.28;95.95;98847.34;5044979;28;20239;-59
2022/12/07 09:04:33;;;;;;;0.00;0.00;;;;;;;3.33;95.75;98835.00;5048961;28;20231;-58
2022/12/07 09:07:01;;;;;;;0.10;0.10;;;;;;;3.33;94.20;98833.22;5042721;28;20245;-59
2022/12/07 09:09:28;;;;;;;0.00;0.00;;;;;;;3.36;93.78;98833.03;5052755;28;20312;-59
2022/12/07 09:11:54;;;;;;;0.00;0.00;;;;;;;3.24;90.91;98842.41;5054118;28;20302;-59
2022/12/07 09:14:21;;;;;;;0.10;0.10;;;;;;;3.28;92.72;98844.78;5048860;28;20633;-60
2022/12/07 09:16:47;;;;;;;0.00;0.00;;;;;;;3.27;93.39;98846.53;5044532;28;20238;-60
2022/12/07 09:19:14;;;;;;;0.00;0.00;;;;;;;3.24;92.46;98855.31;5053240;28;20265;-59
2022/12/07 09:21:41;;;;;;;0.10;0.10;;;;;;;3.09;90.08;98858.84;5045626;28;20227;-59
2022/12/07 09:24:09;;;;;;;0.00;0.00;;;;;;;3.09;91.27;98864.00;5049659;28;20706;-58
2022/12/07 09:26:36;;;;;;;0.00;0.00;;;;;;;3.05;91.60;98865.97;5048198;28;20255;-58
2022/12/07 09:29:03;;;;;;;0.10;0.10;;;;;;;3.02;95.16;98865.31;5037243;28;20249;-59
2022/12/07 09:31:30;;;;;;;0.10;0.10;;;;;;;3.01;97.30;98863.66;5043738;28;20557;-59
2022/12/07 09:33:58;;;;;;;0.00;0.00;;;;;;;3.02;98.26;98866.16;5045715;28;20226;-59
2022/12/07 09:36:25;;;;;;;0.00;0.00;;;;;;;3.05;99.54;98855.66;5043881;28;20222;-59
2022/12/07 09:38:51;;;;;;;0.10;0.10;;;;;;;3.07;99.98;98858.97;5045247;28;20634;-60
2022/12/07 09:41:20;;;;;;;0.00;0.00;;;;;;;3.09;98.92;98851.13;5045827;28;20242;-57
2022/12/07 09:43:46;;;;;;;0.10;0.10;;;;;;;3.00;98.15;98846.53;5045404;28;20242;-58
2022/12/07 09:46:17;;;;;;;0.10;0.10;;;;;;;2.97;97.93;98849.31;5045600;28;20805;-58
2022/12/07 09:48:44;;;;;;;0.00;0.00;;;;;;;2.94;100.00;98848.56;5041005;28;20239;-58
2022/12/07 09:51:17;;;;;;;0.00;0.00;;;;;;;3.04;100.00;98842.84;5039807;28;20249;-58
2022/12/07 09:53:44;;;;;;;0.10;0.10;;;;;;;3.05;100.00;98832.44;5040823;28;20243;-60
2022/12/07 09:56:13;;;;;;;0.10;0.10;;;;;;;3.02;99.90;98837.78;5031695;28;20226;-59
2022/12/07 09:58:42;;;;;;;0.10;0.10;;;;;;;3.01;100.00;98833.56;5045938;28;20231;-60
2022/12/07 10:01:13;;;;;;;0.10;0.10;;;;;;;3.03;99.93;98834.28;5052041;28;20249;-60
2022/12/07 10:03:43;;;;;;;0.10;0.10;;;;;;;2.96;99.25;98830.44;5022218;28;20239;-59
2022/12/07 10:06:13;;;;;;;0.07;0.07;;;;;;;3.04;99.23;98828.22;5043232;28;20231;-59
2022/12/07 10:08:41;;;;;;;0.00;0.00;;;;;;;3.09;98.66;98828.75;5049533;28;20235;-59
2022/12/07 10:11:10;;;;;;;0.10;0.10;;;;;;;3.10;97.65;98829.56;5016432;28;20237;-59
2022/12/07 10:13:39;;;;;;;0.10;0.10;;;;;;;3.10;99.08;98830.41;5035999;28;20610;-59
2022/12/07 10:16:28;;;;;;;0.10;0.10;;;;;;;3.09;99.03;98817.59;5037873;28;20280;-59
2022/12/07 10:18:55;;;;;;;0.00;0.00;;;;;;;3.16;99.54;98808.53;5048110;28;20230;-59
2022/12/07 10:21:24;;;;;;;0.03;0.03;;;;;;;3.19;100.00;98810.06;5051524;28;20629;-59
2022/12/07 10:24:02;;;;;;;0.10;0.10;;;;;;;3.19;99.40;98800.59;5047174;28;20218;-59
2022/12/07 10:26:35;;;;;;;0.10;0.10;;;;;;;3.21;98.82;98803.06;5050631;28;20320;-59
2022/12/07 10:29:13;;;;;;;0.10;0.10;;;;;;;3.21;97.11;98803.91;5044952;28;20230;-59
2022/12/07 10:31:42;;;;;;;0.00;0.00;;;;;;;3.31;97.79;98803.31;5041189;28;20690;-59
2022/12/07 10:34:21;;;;;;;0.10;0.10;;;;;;;3.38;97.68;98804.56;5039787;28;20230;-59
2022/12/07 10:36:48;;;;;;;0.07;0.07;;;;;;;3.47;98.09;98803.13;5030779;28;20724;-59
2022/12/07 10:39:18;;;;;;;0.00;0.00;;;;;;;3.57;97.80;98806.75;5040091;28;20286;-59
2022/12/07 10:41:56;;;;;;;0.03;0.03;;;;;;;3.53;97.35;98810.44;5040310;28;20239;-59
2022/12/07 10:44:24;;;;;;;0.03;0.03;;;;;;;3.57;97.52;98805.94;5054869;22;20242;-63
2022/12/07 10:47:06;;;;;;;0.10;0.10;;;;;;;3.56;96.12;98805.09;5025524;28;20236;-62
2022/12/07 10:49:51;;;;;;;0.00;0.00;;;;;;;3.63;98.13;98800.34;5023372;28;20238;-63
2022/12/07 10:52:32;;;;;;;0.00;0.00;;;;;;;3.54;98.36;98799.19;5021896;28;20231;-62
2022/12/07 10:55:12;;;;;;;0.10;0.10;;;;;;;3.58;99.02;98797.25;5020688;28;20711;-62
2022/12/07 10:57:52;;;;;;;0.00;0.00;;;;;;;3.57;99.11;98791.25;5008129;28;20245;-63
2022/12/07 11:00:22;;;;;;;0.10;0.10;;;;;;;3.50;98.63;98783.09;5025565;28;20558;-63
2022/12/07 11:03:32;;;;;;;0.00;0.00;;;;;;;3.56;97.81;98788.78;5026989;28;20252;-62
2022/12/07 11:06:11;;;;;;;0.03;0.03;;;;;;;3.67;99.04;98783.75;5020595;28;20239;-62
2022/12/07 11:08:55;;;;;;;0.10;0.10;;;;;;;3.70;98.62;98783.53;5018990;28;20601;-62
2022/12/07 11:11:27;;;;;;;0.03;0.03;;;;;;;3.84;99.54;98780.00;5028646;28;20248;-62
2022/12/07 11:14:03;;;;;;;0.00;0.00;;;;;;;3.83;96.84;98768.84;5033355;28;20702;-62
2022/12/07 11:16:39;;;;;;;0.00;0.00;;;;;;;3.91;96.13;98778.66;5027705;28;20230;-63
2022/12/07 11:19:21;;;;;;;0.00;0.00;;;;;;;3.92;96.66;98770.00;5026894;28;20235;-62
2022/12/07 11:21:57;;;;;;;0.10;0.10;;;;;;;3.87;96.33;98768.63;5025789;28;20226;-63
2022/12/07 11:24:28;;;;;;;0.00;0.00;;;;;;;3.93;96.50;98760.47;5029363;28;20229;-63
2022/12/07 11:27:09;;;;;;;0.00;0.00;;;;;;;3.97;96.45;98761.91;5027911;28;20278;-63
2022/12/07 11:29:50;;;;;;;0.00;0.00;;;;;;;4.02;95.83;98753.84;4999277;28;20231;-63
2022/12/07 11:32:23;;;;;;;0.10;0.10;;;;;;;4.05;94.75;98749.28;5029213;28;20236;-63
2022/12/07 11:35:03;;;;;;;0.10;0.10;;;;;;;4.07;94.35;98749.19;5026503;28;20290;-63
2022/12/07 11:37:34;;;;;;;0.10;0.10;;;;;;;4.14;94.19;98751.25;5028993;28;20236;-63
2022/12/07 11:40:04;;;;;;;0.10;0.10;;;;;;;4.14;95.01;98745.25;5027593;28;20231;-63
2022/12/07 11:42:36;;;;;;;0.00;0.00;;;;;;;4.12;93.76;98741.97;5010784;28;20232;-63
2022/12/07 11:45:11;;;;;;;0.03;0.03;;;;;;;4.12;93.38;98742.78;5026714;28;20225;-63
2022/12/07 11:47:46;;;;;;;0.00;0.00;;;;;;;4.20;93.82;98731.06;5025570;28;20321;-63
2022/12/07 11:50:26;;;;;;;0.00;0.00;;;;;;;4.23;91.90;98731.72;5027101;28;20226;-63